createdAt,value
2023-02-07T00:00:46.097Z,24.05
2023-02-07T00:01:46.175Z,24.01
2023-02-07T00:02:46.082Z,24.02
2023-02-07T00:03:46.058Z,24.02
2023-02-07T00:04:46.043Z,24.04
2023-02-07T00:55:28.699Z,24.02
2023-02-07T00:56:29.660Z,24.02
2023-02-07T00:57:29.654Z,24.02
2023-02-07T00:58:29.649Z,24.04
2023-02-07T00:59:29.638Z,24.02
2023-02-07T01:00:29.624Z,24.05
2023-02-07T01:01:29.684Z,24.02
2023-02-07T01:02:29.609Z,24.04
2023-02-07T01:03:29.594Z,24.04
2023-02-07T01:04:30.367Z,24.05
2023-02-07T01:05:29.578Z,24.04
2023-02-07T01:06:29.654Z,24.02
2023-02-07T01:07:29.560Z,24.04
2023-02-07T01:08:29.553Z,24.02
2023-02-07T01:09:29.541Z,24.04
2023-02-07T01:10:29.546Z,24.04
2023-02-07T01:11:29.560Z,24.05
2023-02-07T01:12:29.512Z,24.05
2023-02-07T01:13:29.503Z,24.02
2023-02-07T01:14:29.503Z,24.04
2023-02-07T01:15:29.587Z,24.04
2023-02-07T01:16:29.484Z,24.04
2023-02-07T01:17:29.468Z,24.04
2023-02-07T01:18:29.452Z,24.04
2023-02-07T01:19:29.456Z,24.02
2023-02-07T01:20:29.439Z,24.04
2023-02-07T01:21:29.447Z,24.02
2023-02-07T01:22:29.416Z,24.02
2023-02-07T01:23:29.491Z,24.02
2023-02-07T01:24:29.398Z,24.01
2023-02-07T01:25:29.397Z,24.01
2023-02-07T01:26:29.388Z,24.02
2023-02-07T01:27:29.401Z,24.01
2023-02-07T01:28:29.382Z,24.02
2023-02-07T01:29:29.356Z,24.00
2023-02-07T01:30:29.352Z,24.00
2023-02-07T01:31:29.478Z,24.01
2023-02-07T01:32:29.326Z,24.02
2023-02-07T01:33:29.319Z,24.04
2023-02-07T01:34:29.307Z,24.02
2023-02-07T01:35:29.307Z,24.01
2023-02-07T01:36:29.297Z,24.04
2023-02-07T01:37:29.277Z,24.04
2023-02-07T01:38:29.273Z,24.02
2023-02-07T01:39:29.269Z,24.04
2023-02-07T01:40:29.251Z,24.02
2023-02-07T01:41:29.242Z,24.02
2023-02-07T01:42:29.228Z,24.00
2023-02-07T01:43:29.252Z,24.00
2023-02-07T01:44:29.245Z,24.01
2023-02-07T01:45:29.210Z,24.00
2023-02-07T01:46:29.248Z,24.01
2023-02-07T01:47:29.182Z,24.01
2023-02-07T01:48:29.167Z,24.01
2023-02-07T01:49:29.169Z,24.01
2023-02-07T01:50:29.150Z,24.01
2023-02-07T01:51:29.153Z,24.02
2023-02-07T01:52:29.144Z,24.02
2023-02-07T01:53:29.122Z,24.01
2023-02-07T01:54:29.118Z,24.01
2023-02-07T01:55:29.102Z,24.01
2023-02-07T01:56:32.017Z,24.02
2023-02-07T01:57:29.093Z,24.02
2023-02-07T01:58:29.076Z,24.00
2023-02-07T01:59:29.098Z,24.02
2023-02-07T02:00:29.079Z,24.01
2023-02-07T02:01:29.102Z,24.01
2023-02-07T02:02:29.089Z,24.02
2023-02-07T02:03:29.032Z,24.04
2023-02-07T02:04:29.032Z,24.02
2023-02-07T02:05:29.021Z,24.01
2023-02-07T02:06:29.014Z,24.00
2023-02-07T02:07:29.000Z,24.00
2023-02-07T02:08:28.976Z,24.01
2023-02-07T02:09:28.979Z,24.01
2023-02-07T02:10:28.957Z,24.00
2023-02-07T02:11:28.961Z,24.00
2023-02-07T02:12:28.938Z,24.01
2023-02-07T02:13:28.990Z,24.02
2023-02-07T02:14:28.932Z,24.00
2023-02-07T02:15:28.937Z,24.01
2023-02-07T02:16:28.898Z,24.01
2023-02-07T02:17:28.893Z,24.02
2023-02-07T02:18:28.880Z,24.02
2023-02-07T02:19:28.871Z,24.02
2023-02-07T02:20:28.884Z,24.04
2023-02-07T02:21:28.860Z,24.04
2023-02-07T02:22:28.838Z,24.01
2023-02-07T02:23:28.829Z,24.01
2023-02-07T02:24:28.826Z,24.01
2023-02-07T02:25:28.814Z,24.02
2023-02-07T02:26:28.800Z,24.01
2023-02-07T02:27:28.790Z,24.02
2023-02-07T02:28:28.782Z,24.00
2023-02-07T02:29:28.773Z,24.01
2023-02-07T02:30:28.783Z,24.04
2023-02-07T02:31:28.820Z,24.01
2023-02-07T02:32:28.747Z,24.01
2023-02-07T02:33:28.736Z,24.01
2023-02-07T02:34:28.726Z,24.02
2023-02-07T02:35:28.714Z,24.01
2023-02-07T02:36:28.739Z,24.01
2023-02-07T02:37:28.706Z,24.00
2023-02-07T02:38:28.685Z,23.98
2023-02-07T02:39:28.678Z,24.00
2023-02-07T02:40:28.697Z,24.01
2023-02-07T02:41:28.662Z,24.00
2023-02-07T02:42:28.650Z,23.98
2023-02-07T02:43:28.655Z,23.98
2023-02-07T02:44:28.630Z,24.00
2023-02-07T02:45:28.622Z,24.01
2023-02-07T02:46:28.610Z,23.98
2023-02-07T02:47:28.631Z,23.98
2023-02-07T02:48:28.599Z,24.00
2023-02-07T02:49:28.581Z,24.01
2023-02-07T02:50:28.572Z,24.01
2023-02-07T02:51:28.566Z,23.98
2023-02-07T02:52:44.624Z,24.00
2023-02-07T02:53:28.550Z,24.00
2023-02-07T02:54:28.536Z,24.02
2023-02-07T02:55:28.533Z,23.98
2023-02-07T02:56:28.518Z,23.98
2023-02-07T02:57:28.512Z,24.00
2023-02-07T02:58:28.504Z,23.98
2023-02-07T02:59:28.488Z,24.00
2023-02-07T03:00:28.478Z,24.01
2023-02-07T03:01:28.593Z,24.00
2023-02-07T03:02:28.464Z,24.00
2023-02-07T03:03:28.483Z,24.00
2023-02-07T03:04:28.452Z,24.01
2023-02-07T03:05:28.522Z,24.00
2023-02-07T03:06:28.425Z,23.98
2023-02-07T03:07:28.414Z,24.01
2023-02-07T03:08:28.401Z,23.98
2023-02-07T03:09:28.395Z,24.01
2023-02-07T03:10:28.450Z,23.98
2023-02-07T03:11:28.392Z,23.98
2023-02-07T03:12:28.363Z,24.00
2023-02-07T03:13:28.356Z,23.98
2023-02-07T03:14:28.345Z,24.00
2023-02-07T03:15:28.337Z,23.98
2023-02-07T03:16:28.331Z,24.01
2023-02-07T03:17:28.325Z,24.00
2023-02-07T03:18:28.308Z,24.00
2023-02-07T03:19:28.330Z,23.97
2023-02-07T03:20:28.289Z,23.98
2023-02-07T03:21:28.279Z,24.00
2023-02-07T03:22:28.267Z,24.00
2023-02-07T03:23:28.259Z,23.98
2023-02-07T03:24:28.254Z,23.98
2023-02-07T03:25:28.240Z,24.01
2023-02-07T03:26:28.237Z,24.00
2023-02-07T03:27:28.223Z,24.00
2023-02-07T03:28:28.208Z,24.04
2023-02-07T03:29:28.204Z,24.01
2023-02-07T03:30:28.228Z,24.00
2023-02-07T03:31:28.227Z,23.98
2023-02-07T03:32:28.172Z,23.98
2023-02-07T03:33:28.163Z,23.98
2023-02-07T03:34:28.150Z,23.97
2023-02-07T03:35:28.172Z,23.97
2023-02-07T03:36:28.134Z,24.00
2023-02-07T03:37:28.119Z,24.00
2023-02-07T03:38:28.109Z,24.00
2023-02-07T03:39:28.103Z,23.98
2023-02-07T03:40:28.108Z,24.00
2023-02-07T03:41:28.083Z,23.98
2023-02-07T03:42:28.080Z,24.01
2023-02-07T03:43:28.067Z,24.00
2023-02-07T03:44:28.053Z,24.01
2023-02-07T03:45:28.047Z,24.01
2023-02-07T03:46:28.075Z,24.00
2023-02-07T03:47:28.030Z,23.97
2023-02-07T03:48:28.034Z,24.00
2023-02-07T03:49:28.014Z,23.98
2023-02-07T03:50:28.012Z,23.97
2023-02-07T03:51:28.020Z,24.01
2023-02-07T03:52:27.982Z,24.00
2023-02-07T03:53:27.969Z,24.00
2023-02-07T03:54:27.965Z,23.98
2023-02-07T03:55:27.950Z,24.00
2023-02-07T03:56:27.944Z,24.00
2023-02-07T03:57:27.931Z,23.98
2023-02-07T03:58:27.930Z,24.01
2023-02-07T03:59:27.930Z,24.01
2023-02-07T04:00:27.922Z,24.01
2023-02-07T04:01:27.899Z,23.98
2023-02-07T04:02:27.913Z,24.00
2023-02-07T04:03:27.877Z,23.98
2023-02-07T04:04:27.873Z,23.98
2023-02-07T04:05:27.858Z,24.01
2023-02-07T04:06:27.849Z,24.01
2023-02-07T04:07:27.871Z,23.98
2023-02-07T04:08:27.828Z,24.00
2023-02-07T04:09:27.828Z,24.01
2023-02-07T04:10:27.809Z,24.00
2023-02-07T04:11:27.802Z,24.00
2023-02-07T04:12:27.794Z,23.98
2023-02-07T04:13:27.784Z,23.98
2023-02-07T04:14:27.785Z,24.00
2023-02-07T04:15:27.764Z,24.00
2023-02-07T04:16:27.794Z,23.98
2023-02-07T04:17:30.814Z,23.98
2023-02-07T04:18:27.734Z,23.98
2023-02-07T04:19:27.729Z,23.98
2023-02-07T04:20:27.717Z,23.97
2023-02-07T04:21:27.707Z,23.89
2023-02-07T04:22:27.697Z,23.88
2023-02-07T04:23:27.715Z,23.85
2023-02-07T04:24:27.682Z,23.84
2023-02-07T04:25:27.670Z,23.81
2023-02-07T04:26:27.664Z,23.78
2023-02-07T04:27:27.656Z,23.74
2023-02-07T04:28:27.643Z,23.74
2023-02-07T04:29:27.643Z,23.71
2023-02-07T04:30:27.653Z,23.68
2023-02-07T04:31:27.649Z,23.67
2023-02-07T04:32:26.603Z,23.68
2023-02-07T04:33:27.596Z,23.66
2023-02-07T04:34:27.587Z,23.63
2023-02-07T04:35:27.578Z,23.63
2023-02-07T04:36:27.567Z,23.63
2023-02-07T04:37:27.554Z,23.61
2023-02-07T04:38:27.557Z,23.64
2023-02-07T04:39:27.568Z,23.59
2023-02-07T04:40:27.529Z,23.60
2023-02-07T04:41:27.555Z,23.59
2023-02-07T04:42:27.512Z,23.59
2023-02-07T04:43:27.498Z,23.60
2023-02-07T04:44:27.491Z,23.57
2023-02-07T04:45:27.480Z,23.54
2023-02-07T04:46:27.471Z,23.54
2023-02-07T04:47:28.397Z,23.56
2023-02-07T04:48:27.464Z,23.57
2023-02-07T04:49:27.444Z,23.56
2023-02-07T04:50:27.438Z,23.54
2023-02-07T04:51:27.424Z,23.54
2023-02-07T04:52:27.432Z,23.56
2023-02-07T04:53:27.407Z,23.56
2023-02-07T04:54:27.401Z,23.56
2023-02-07T04:55:27.416Z,23.56
2023-02-07T04:56:27.389Z,23.56
2023-02-07T04:57:27.370Z,23.57
2023-02-07T04:58:27.360Z,23.54
2023-02-07T04:59:27.354Z,23.56
2023-02-07T05:00:27.345Z,23.54
2023-02-07T05:01:27.382Z,23.54
2023-02-07T05:02:27.322Z,23.53
2023-02-07T05:03:27.314Z,23.54
2023-02-07T05:04:27.331Z,23.54
2023-02-07T05:05:27.299Z,23.56
2023-02-07T05:06:27.288Z,23.53
2023-02-07T05:07:27.281Z,23.56
2023-02-07T05:08:27.292Z,23.57
2023-02-07T05:09:27.262Z,23.53
2023-02-07T05:10:27.280Z,23.54
2023-02-07T05:11:27.272Z,23.56
2023-02-07T05:12:27.237Z,23.54
2023-02-07T05:13:27.228Z,23.54
2023-02-07T05:14:27.216Z,23.56
2023-02-07T05:15:27.226Z,23.57
2023-02-07T05:16:27.252Z,23.59
2023-02-07T05:17:27.190Z,23.59
2023-02-07T05:18:27.179Z,23.60
2023-02-07T05:19:27.172Z,23.57
2023-02-07T05:20:27.164Z,23.61
2023-02-07T05:21:27.150Z,23.57
2023-02-07T05:22:27.139Z,23.59
2023-02-07T05:23:27.138Z,23.60
2023-02-07T05:24:27.123Z,23.60
2023-02-07T05:25:27.121Z,23.57
2023-02-07T05:26:27.104Z,23.60
2023-02-07T05:27:27.129Z,23.61
2023-02-07T05:28:27.091Z,23.60
2023-02-07T05:29:27.080Z,23.61
2023-02-07T05:30:27.070Z,23.59
2023-02-07T05:31:27.182Z,23.60
2023-02-07T05:32:27.055Z,23.60
2023-02-07T05:33:27.044Z,23.61
2023-02-07T05:34:27.031Z,23.59
2023-02-07T05:35:27.026Z,23.60
2023-02-07T05:36:27.013Z,23.60
2023-02-07T05:37:27.010Z,23.59
2023-02-07T05:38:26.991Z,23.63
2023-02-07T05:39:26.979Z,23.61
2023-02-07T05:40:26.972Z,23.60
2023-02-07T05:41:26.964Z,23.61
2023-02-07T05:42:26.951Z,23.61
2023-02-07T05:43:26.980Z,23.63
2023-02-07T05:44:26.947Z,23.63
2023-02-07T05:45:26.940Z,23.63
2023-02-07T05:46:26.915Z,23.63
2023-02-07T05:47:26.909Z,23.61
2023-02-07T05:48:26.900Z,23.61
2023-02-07T05:49:26.885Z,23.61
2023-02-07T05:50:26.893Z,23.60
2023-02-07T05:51:26.872Z,23.64
2023-02-07T05:52:26.856Z,23.63
2023-02-07T05:53:26.852Z,23.63
2023-02-07T05:54:26.839Z,23.61
2023-02-07T05:55:26.837Z,23.63
2023-02-07T05:56:26.824Z,23.61
2023-02-07T05:57:26.809Z,23.64
2023-02-07T05:58:26.799Z,23.63
2023-02-07T05:59:26.817Z,23.64
2023-02-07T06:00:26.791Z,23.64
2023-02-07T06:01:26.773Z,23.66
2023-02-07T06:02:26.863Z,23.63
2023-02-07T06:03:26.786Z,23.66
2023-02-07T06:04:26.745Z,23.66
2023-02-07T06:05:26.731Z,23.67
2023-02-07T06:06:26.929Z,23.66
2023-02-07T06:07:26.714Z,23.64
2023-02-07T06:08:26.704Z,23.66
2023-02-07T06:09:26.694Z,23.66
2023-02-07T06:10:26.689Z,23.66
2023-02-07T06:11:26.692Z,23.67
2023-02-07T06:12:26.672Z,23.67
2023-02-07T06:13:26.662Z,23.64
2023-02-07T06:14:26.843Z,23.66
2023-02-07T06:15:26.734Z,23.64
2023-02-07T06:16:26.632Z,23.66
2023-02-07T06:17:26.627Z,23.64
2023-02-07T06:18:26.617Z,23.67
2023-02-07T06:19:26.937Z,23.67
2023-02-07T06:20:26.626Z,23.68
2023-02-07T06:21:34.677Z,23.67
2023-02-07T06:22:26.676Z,23.66
2023-02-07T06:23:26.723Z,23.66
2023-02-07T06:24:26.935Z,23.66
2023-02-07T06:25:26.569Z,23.63
2023-02-07T06:26:26.969Z,23.60
2023-02-07T06:27:26.564Z,23.60
2023-02-07T06:28:26.522Z,23.60
2023-02-07T06:29:26.510Z,23.60
2023-02-07T06:30:26.625Z,23.63
2023-02-07T06:31:27.061Z,23.60
2023-02-07T06:32:26.499Z,23.60
2023-02-07T06:33:26.944Z,23.60
2023-02-07T06:34:26.468Z,23.60
2023-02-07T06:35:26.458Z,23.61
2023-02-07T06:36:26.459Z,23.60
2023-02-07T06:37:26.442Z,23.60
2023-02-07T06:38:26.439Z,23.60
2023-02-07T06:39:26.422Z,23.60
2023-02-07T06:40:26.414Z,23.61
2023-02-07T06:41:26.412Z,23.63
2023-02-07T06:42:26.945Z,23.66
2023-02-07T06:43:26.385Z,23.64
2023-02-07T06:44:26.395Z,23.64
2023-02-07T06:45:26.365Z,23.66
2023-02-07T06:46:26.443Z,23.67
2023-02-07T06:47:26.462Z,23.67
2023-02-07T06:48:26.334Z,23.71
2023-02-07T06:49:26.363Z,23.70
2023-02-07T06:50:26.320Z,23.71
2023-02-07T06:51:26.316Z,23.73
2023-02-07T06:52:26.456Z,23.74
2023-02-07T06:53:26.294Z,23.77
2023-02-07T06:54:26.291Z,23.70
2023-02-07T06:55:26.375Z,23.48
2023-02-07T06:56:26.457Z,23.30
2023-02-07T06:57:27.090Z,23.13
2023-02-07T06:59:26.255Z,23.08
2023-02-07T07:00:26.228Z,23.06
2023-02-07T07:01:26.272Z,23.12
2023-02-07T07:03:26.470Z,23.23
2023-02-07T07:04:26.223Z,23.27
2023-02-07T07:05:26.184Z,23.29
2023-02-07T07:06:26.170Z,23.34
2023-02-07T07:07:26.185Z,23.38
2023-02-07T07:08:26.495Z,23.42
2023-02-07T07:09:26.153Z,23.48
2023-02-07T07:10:26.234Z,23.52
2023-02-07T07:11:26.131Z,23.56
2023-02-07T07:12:26.465Z,23.59
2023-02-07T07:13:26.109Z,23.61
2023-02-07T07:14:26.098Z,23.66
2023-02-07T07:15:26.087Z,23.67
2023-02-07T07:16:25.193Z,23.70
2023-02-07T07:17:26.481Z,23.76
2023-02-07T07:18:26.116Z,23.71
2023-02-07T07:19:26.122Z,23.76
2023-02-07T07:20:26.090Z,23.78
2023-02-07T07:21:26.058Z,23.78
2023-02-07T07:22:26.494Z,23.81
2023-02-07T07:23:26.054Z,23.85
2023-02-07T07:24:26.057Z,23.88
2023-02-07T07:25:26.026Z,23.89
2023-02-07T07:26:29.727Z,23.91
2023-02-07T07:27:26.001Z,23.91
2023-02-07T07:28:25.973Z,23.94
2023-02-07T07:29:25.960Z,23.95
2023-02-07T07:30:25.964Z,23.98
2023-02-07T07:31:25.963Z,23.98
2023-02-07T07:32:34.072Z,24.01
2023-02-07T07:33:25.933Z,24.01
2023-02-07T07:34:25.964Z,24.01
2023-02-07T07:35:25.943Z,24.04
2023-02-07T07:36:25.899Z,24.00
2023-02-07T07:37:26.884Z,24.05
2023-02-07T07:38:25.879Z,24.04
2023-02-07T07:39:25.969Z,24.04
2023-02-07T07:40:25.860Z,24.02
2023-02-07T07:41:25.854Z,24.04
2023-02-07T07:42:25.994Z,24.02
2023-02-07T07:43:25.828Z,24.02
2023-02-07T07:44:25.818Z,24.05
2023-02-07T07:45:25.989Z,24.07
2023-02-07T07:46:25.916Z,24.09
2023-02-07T07:47:25.792Z,24.09
2023-02-07T07:48:26.043Z,24.07
2023-02-07T07:49:26.771Z,24.12
2023-02-07T07:50:25.808Z,24.11
2023-02-07T07:51:26.007Z,24.09
2023-02-07T07:52:25.750Z,24.11
2023-02-07T07:53:25.975Z,24.12
2023-02-07T07:54:25.721Z,24.12
2023-02-07T07:55:25.718Z,24.12
2023-02-07T07:56:25.724Z,24.12
2023-02-07T07:57:25.698Z,24.14
2023-02-07T07:58:25.974Z,24.14
2023-02-07T07:59:25.680Z,24.14
2023-02-07T08:00:25.706Z,24.14
2023-02-07T08:01:25.844Z,24.14
2023-02-07T08:02:25.999Z,24.15
2023-02-07T08:03:26.097Z,24.18
2023-02-07T08:04:25.629Z,24.21
2023-02-07T08:05:25.622Z,24.25
2023-02-07T08:06:25.618Z,24.25
2023-02-07T08:07:25.664Z,24.26
2023-02-07T08:08:25.978Z,24.26
2023-02-07T08:09:25.614Z,24.31
2023-02-07T08:10:25.601Z,24.32
2023-02-07T08:11:25.594Z,24.33
2023-02-07T08:12:25.998Z,24.32
2023-02-07T08:13:29.568Z,24.35
2023-02-07T08:15:25.558Z,24.36
2023-02-07T08:16:25.549Z,24.35
2023-02-07T08:17:25.994Z,24.33
2023-02-07T08:18:25.501Z,24.35
2023-02-07T08:19:25.499Z,24.38
2023-02-07T08:20:25.494Z,24.35
2023-02-07T08:21:25.492Z,24.38
2023-02-07T08:22:25.497Z,24.39
2023-02-07T08:23:25.509Z,24.40
2023-02-07T08:24:26.295Z,24.46
2023-02-07T08:25:25.477Z,24.53
2023-02-07T08:26:25.429Z,24.67
2023-02-07T08:27:25.421Z,24.83
2023-02-07T08:28:25.492Z,24.97
2023-02-07T08:29:25.405Z,25.11
2023-02-07T08:30:25.398Z,25.21
2023-02-07T08:31:25.506Z,25.25
2023-02-07T08:32:25.493Z,25.25
2023-02-07T08:33:25.505Z,25.26
2023-02-07T08:34:25.502Z,25.29
2023-02-07T08:35:25.345Z,25.31
2023-02-07T08:36:25.348Z,25.31
2023-02-07T08:37:25.326Z,25.21
2023-02-07T08:38:25.338Z,25.15
2023-02-07T08:39:25.548Z,25.11
2023-02-07T08:40:41.220Z,25.05
2023-02-07T08:42:25.436Z,24.91
2023-02-07T08:43:25.484Z,24.88
2023-02-07T08:44:25.488Z,24.76
2023-02-07T08:45:25.509Z,24.71
2023-02-07T08:46:25.434Z,24.67
2023-02-07T08:47:25.390Z,24.66
2023-02-07T08:48:25.677Z,24.64
2023-02-07T08:49:25.549Z,24.69
2023-02-07T08:50:25.364Z,24.67
2023-02-07T08:51:25.489Z,24.66
2023-02-07T08:52:25.366Z,24.70
2023-02-07T08:53:25.486Z,24.71
2023-02-07T08:54:25.487Z,24.74
2023-02-07T08:55:25.336Z,24.71
2023-02-07T08:56:25.301Z,24.74
2023-02-07T08:57:25.294Z,24.74
2023-02-07T08:58:25.293Z,24.70
2023-02-07T08:59:25.492Z,24.66
2023-02-07T09:00:25.616Z,24.63
2023-02-07T09:01:28.481Z,24.63
2023-02-07T09:02:25.277Z,24.59
2023-02-07T09:03:25.240Z,24.57
2023-02-07T09:04:25.509Z,24.55
2023-02-07T09:05:25.227Z,24.56
2023-02-07T09:06:25.212Z,24.55
2023-02-07T09:07:25.204Z,24.52
2023-02-07T09:08:25.194Z,24.55
2023-02-07T09:09:25.493Z,24.50
2023-02-07T09:10:25.856Z,24.50
2023-02-07T09:11:25.271Z,24.52
2023-02-07T09:12:25.152Z,24.56
2023-02-07T09:13:25.162Z,24.55
2023-02-07T09:14:25.508Z,24.62
2023-02-07T09:15:25.438Z,24.64
2023-02-07T09:16:25.388Z,24.66
2023-02-07T09:17:25.115Z,24.67
2023-02-07T09:18:25.105Z,24.66
2023-02-07T09:19:25.503Z,24.64
2023-02-07T09:20:25.110Z,24.63
2023-02-07T09:21:25.074Z,24.59
2023-02-07T09:22:25.064Z,24.56
2023-02-07T09:23:25.380Z,24.57
2023-02-07T09:25:25.141Z,24.55
2023-02-07T09:26:25.185Z,24.55
2023-02-07T09:27:25.135Z,24.55
2023-02-07T09:28:25.188Z,24.57
2023-02-07T09:29:25.506Z,24.60
2023-02-07T09:30:25.272Z,24.60
2023-02-07T09:31:32.602Z,24.59
2023-02-07T09:33:25.048Z,24.63
2023-02-07T09:34:25.526Z,24.63
2023-02-07T09:35:25.047Z,24.64
2023-02-07T09:36:25.672Z,24.64
2023-02-07T09:37:25.013Z,24.62
2023-02-07T09:38:25.000Z,24.62
2023-02-07T09:39:25.007Z,24.60
2023-02-07T09:40:25.009Z,24.62
2023-02-07T09:41:24.970Z,24.62
2023-02-07T09:42:25.256Z,24.62
2023-02-07T09:43:25.192Z,24.66
2023-02-07T09:44:25.288Z,24.69
2023-02-07T09:45:25.315Z,24.70
2023-02-07T09:46:25.013Z,24.70
2023-02-07T09:47:25.914Z,24.74
2023-02-07T09:48:24.912Z,24.76
2023-02-07T09:49:25.028Z,24.77
2023-02-07T09:50:25.015Z,24.80
2023-02-07T09:51:24.885Z,24.80
2023-02-07T09:52:24.893Z,24.77
2023-02-07T09:53:24.935Z,24.74
2023-02-07T09:54:25.021Z,24.76
2023-02-07T09:55:24.846Z,24.71
2023-02-07T09:56:24.843Z,24.73
2023-02-07T09:57:24.823Z,24.70
2023-02-07T09:58:24.814Z,24.66
2023-02-07T10:00:24.793Z,24.60
2023-02-07T10:01:24.800Z,24.57
2023-02-07T10:02:24.848Z,24.53
2023-02-07T10:03:25.014Z,24.53
2023-02-07T10:04:24.756Z,24.50
2023-02-07T10:05:25.013Z,24.48
2023-02-07T10:06:24.733Z,24.46
2023-02-07T10:07:24.734Z,24.44
2023-02-07T10:08:28.359Z,24.40
2023-02-07T10:09:24.708Z,24.38
2023-02-07T10:10:25.017Z,24.36
2023-02-07T10:11:24.710Z,24.35
2023-02-07T10:12:24.674Z,24.33
2023-02-07T10:13:24.676Z,24.33
2023-02-07T10:14:24.682Z,24.29
2023-02-07T10:15:25.041Z,24.28
2023-02-07T10:16:24.643Z,24.23
2023-02-07T10:17:31.521Z,24.22
2023-02-07T10:18:24.620Z,24.23
2023-02-07T10:19:24.614Z,24.23
2023-02-07T10:20:25.039Z,24.21
2023-02-07T10:21:24.594Z,24.18
2023-02-07T10:22:24.599Z,24.19
2023-02-07T10:23:23.595Z,24.21
2023-02-07T10:24:24.582Z,24.18
2023-02-07T10:25:25.076Z,24.19
2023-02-07T10:26:24.590Z,24.19
2023-02-07T10:27:24.539Z,24.21
2023-02-07T10:28:24.617Z,24.22
2023-02-07T10:29:24.523Z,24.21
2023-02-07T10:30:24.556Z,24.22
2023-02-07T10:31:24.694Z,24.23
2023-02-07T10:32:24.494Z,24.00
2023-02-07T10:33:24.482Z,24.02
2023-02-07T10:34:24.471Z,23.98
2023-02-07T10:35:24.520Z,23.97
2023-02-07T10:36:24.524Z,23.97
2023-02-07T10:37:24.438Z,23.94
2023-02-07T10:40:24.547Z,23.91
2023-02-07T10:41:24.404Z,23.91
2023-02-07T10:43:24.536Z,23.87
2023-02-07T10:44:24.375Z,23.87
2023-02-07T10:45:24.419Z,23.87
2023-02-07T10:46:24.413Z,23.87
2023-02-07T10:47:24.561Z,23.81
2023-02-07T10:48:24.387Z,23.83
2023-02-07T10:49:25.789Z,23.81
2023-02-07T10:51:24.525Z,23.80
2023-02-07T10:53:24.445Z,23.77
2023-02-07T10:54:24.455Z,23.74
2023-02-07T10:56:24.536Z,23.74
2023-02-07T10:58:24.385Z,23.71
2023-02-07T11:01:24.573Z,23.68
2023-02-07T11:08:24.536Z,23.60
2023-02-07T11:10:24.258Z,23.59
2023-02-07T11:12:24.535Z,23.59
2023-02-07T11:14:24.223Z,23.53
2023-02-07T11:16:24.601Z,23.49
2023-02-07T11:17:24.224Z,23.49
2023-02-07T11:18:24.192Z,23.48
2023-02-07T11:19:24.204Z,23.48
2023-02-07T11:20:24.167Z,23.49
2023-02-07T11:21:24.538Z,23.50
2023-02-07T11:22:24.156Z,23.48
2023-02-07T11:23:24.139Z,23.45
2023-02-07T11:24:24.130Z,23.46
2023-02-07T11:25:24.146Z,23.46
2023-02-07T11:26:24.540Z,23.45
2023-02-07T11:27:24.105Z,23.45
2023-02-07T11:28:24.155Z,23.45
2023-02-07T11:29:24.089Z,23.43
2023-02-07T11:30:24.143Z,23.43
2023-02-07T11:32:24.631Z,23.42
2023-02-07T11:33:24.046Z,23.42
2023-02-07T11:34:24.041Z,23.42
2023-02-07T11:35:24.053Z,23.40
2023-02-07T11:36:24.102Z,23.38
2023-02-07T11:37:24.010Z,23.38
2023-02-07T11:38:24.128Z,23.39
2023-02-07T11:39:23.998Z,23.36
2023-02-07T11:40:23.985Z,23.38
2023-02-07T11:41:23.970Z,23.36
2023-02-07T11:42:24.084Z,23.36
2023-02-07T11:43:23.957Z,23.36
2023-02-07T11:44:23.945Z,23.36
2023-02-07T11:45:23.944Z,23.38
2023-02-07T11:46:23.967Z,23.36
2023-02-07T11:47:24.049Z,23.34
2023-02-07T11:48:24.047Z,23.34
2023-02-07T11:49:23.897Z,23.34
2023-02-07T11:50:23.882Z,23.33
2023-02-07T11:51:23.899Z,23.32
2023-02-07T11:52:24.049Z,23.36
2023-02-07T11:53:23.907Z,23.33
2023-02-07T11:55:23.848Z,23.32
2023-02-07T11:56:23.838Z,23.27
2023-02-07T11:57:24.051Z,23.30
2023-02-07T11:58:23.819Z,23.30
2023-02-07T11:59:23.814Z,23.29
2023-02-07T12:00:23.800Z,23.27
2023-02-07T12:01:23.782Z,23.27
2023-02-07T12:02:24.070Z,23.26
2023-02-07T12:03:23.884Z,23.26
2023-02-07T12:04:23.766Z,23.25
2023-02-07T12:05:23.749Z,23.25
2023-02-07T12:06:23.748Z,23.23
2023-02-07T12:07:24.084Z,23.25
2023-02-07T12:08:24.075Z,23.21
2023-02-07T12:09:23.726Z,23.22
2023-02-07T12:11:23.693Z,23.26
2023-02-07T12:12:24.073Z,23.29
2023-02-07T12:13:24.071Z,23.32
2023-02-07T12:14:23.691Z,23.34
2023-02-07T12:15:23.682Z,23.36
2023-02-07T12:16:24.090Z,23.36
2023-02-07T12:17:23.637Z,23.38
2023-02-07T12:18:24.065Z,23.40
2023-02-07T12:19:23.618Z,23.40
2023-02-07T12:20:23.618Z,23.39
2023-02-07T12:21:23.602Z,23.43
2023-02-07T12:22:23.601Z,23.43
2023-02-07T12:24:23.573Z,23.43
2023-02-07T12:25:23.563Z,23.42
2023-02-07T12:26:23.913Z,23.40
2023-02-07T12:27:23.557Z,23.39
2023-02-07T12:28:23.617Z,23.39
2023-02-07T12:29:23.530Z,23.40
2023-02-07T12:30:23.517Z,23.39
2023-02-07T12:31:23.598Z,23.38
2023-02-07T12:32:23.631Z,23.34
2023-02-07T12:33:23.580Z,23.38
2023-02-07T12:34:23.571Z,23.34
2023-02-07T12:35:23.491Z,23.34
2023-02-07T12:36:24.456Z,23.33
2023-02-07T12:37:23.449Z,23.34
2023-02-07T12:38:23.442Z,23.32
2023-02-07T12:39:23.598Z,23.27
2023-02-07T12:40:23.430Z,23.25
2023-02-07T12:41:23.438Z,23.21
2023-02-07T12:42:23.430Z,23.22
2023-02-07T12:43:23.427Z,23.21
2023-02-07T12:44:23.598Z,23.18
2023-02-07T12:45:23.506Z,23.15
2023-02-07T12:46:23.398Z,23.16
2023-02-07T12:47:23.551Z,23.13
2023-02-07T12:49:23.524Z,23.15
2023-02-07T12:50:23.660Z,23.16
2023-02-07T12:51:23.353Z,23.16
2023-02-07T12:52:23.350Z,23.16
2023-02-07T12:53:23.574Z,23.18
2023-02-07T12:54:23.323Z,23.19
2023-02-07T12:55:23.507Z,23.18
2023-02-07T12:56:23.279Z,23.19
2023-02-07T12:57:23.271Z,23.19
2023-02-07T12:58:23.580Z,23.23
2023-02-07T12:59:23.580Z,23.19
2023-02-07T13:00:23.245Z,23.23
2023-02-07T13:01:23.309Z,23.22
2023-02-07T13:02:23.400Z,23.22
2023-02-07T13:03:23.582Z,23.25
2023-02-07T13:04:23.579Z,23.29
2023-02-07T13:05:23.197Z,23.30
2023-02-07T13:06:23.184Z,23.33
2023-02-07T13:07:23.174Z,23.38
2023-02-07T13:08:23.169Z,23.38
2023-02-07T13:09:23.603Z,23.42
2023-02-07T13:12:23.169Z,23.48
2023-02-07T13:13:23.600Z,23.50
2023-02-07T13:14:23.145Z,23.53
2023-02-07T13:15:23.130Z,23.57
2023-02-07T13:16:23.110Z,23.57
2023-02-07T13:17:23.108Z,23.61
2023-02-07T13:18:23.583Z,23.63
2023-02-07T13:19:23.063Z,23.61
2023-02-07T13:20:23.047Z,23.64
2023-02-07T13:21:23.065Z,23.63
2023-02-07T13:22:23.056Z,23.61
2023-02-07T13:23:23.268Z,23.61
2023-02-07T13:24:23.053Z,23.60
2023-02-07T13:25:23.017Z,23.60
2023-02-07T13:26:22.987Z,23.63
2023-02-07T13:27:23.083Z,23.61
2023-02-07T13:28:23.121Z,23.63
2023-02-07T13:29:22.957Z,23.61
2023-02-07T13:30:23.196Z,23.64
2023-02-07T13:31:23.032Z,23.61
2023-02-07T13:32:22.928Z,23.64
2023-02-07T13:33:22.919Z,23.63
2023-02-07T13:34:22.917Z,23.63
2023-02-07T13:35:22.899Z,23.63
2023-02-07T13:36:22.901Z,23.61
2023-02-07T13:37:22.881Z,23.63
2023-02-07T13:38:23.086Z,23.61
2023-02-07T13:39:22.898Z,23.61
2023-02-07T13:40:22.859Z,23.61
2023-02-07T13:41:22.848Z,23.63
2023-02-07T13:42:22.841Z,23.63
2023-02-07T13:43:23.108Z,23.63
2023-02-07T13:44:22.854Z,23.59
2023-02-07T13:45:22.824Z,23.61
2023-02-07T13:46:26.216Z,23.63
2023-02-07T13:47:22.791Z,23.60
2023-02-07T13:48:23.094Z,23.63
2023-02-07T13:49:22.775Z,23.60
2023-02-07T13:50:22.766Z,23.61
2023-02-07T13:51:22.754Z,23.61
2023-02-07T13:52:22.750Z,23.61
2023-02-07T13:53:23.099Z,23.61
2023-02-07T13:54:23.092Z,23.59
2023-02-07T13:55:22.725Z,23.60
2023-02-07T13:56:22.704Z,23.60
2023-02-07T13:57:22.697Z,23.60
2023-02-07T13:58:23.099Z,23.59
2023-02-07T13:59:23.118Z,23.61
2023-02-07T14:00:22.667Z,23.59
2023-02-07T14:01:22.669Z,23.59
2023-02-07T14:02:22.650Z,23.60
2023-02-07T14:03:22.672Z,23.54
2023-02-07T14:04:23.105Z,23.54
2023-02-07T14:05:22.619Z,23.54
2023-02-07T14:06:23.107Z,23.53
2023-02-07T14:07:22.609Z,23.53
2023-02-07T14:08:22.598Z,23.49
2023-02-07T14:09:22.602Z,23.48
2023-02-07T14:10:22.573Z,23.52
2023-02-07T14:11:22.598Z,23.49
2023-02-07T14:12:22.561Z,23.50
2023-02-07T14:13:22.547Z,23.48
2023-02-07T14:14:22.537Z,23.49
2023-02-07T14:15:22.555Z,23.49